sensor_id;sensor_type;location;lat;lon;timestamp;pressure;altitude;pressure_sealevel;temperature;humidity
13348;BME280;6743;49.934;9.138;2022-08-19T00:01:51;99986.41;;;21.59;100.00
13348;BME280;6743;49.934;9.138;2022-08-19T00:04:20;99985.03;;;21.57;100.00
13348;BME280;6743;49.934;9.138;2022-08-19T00:06:47;99984.22;;;21.56;100.00
13348;BME280;6743;49.934;9.138;2022-08-19T00:09:17;99978.56;;;21.58;100.00
13348;BME280;6743;49.934;9.138;2022-08-19T00:11:45;99978.56;;;21.58;100.00
13348;BME280;6743;49.934;9.138;2022-08-19T00:14:13;99976.13;;;21.56;100.00
13348;BME280;6743;49.934;9.138;2022-08-19T00:16:42;99973.66;;;21.55;100.00
13348;BME280;6743;49.934;9.138;2022-08-19T00:19:09;99967.44;;;21.54;100.00
13348;BME280;6743;49.934;9.138;2022-08-19T00:21:35;99948.78;;;21.53;100.00
13348;BME280;6743;49.934;9.138;2022-08-19T00:24:06;99957.94;;;21.52;100.00
13348;BME280;6743;49.934;9.138;2022-08-19T00:26:32;99951.97;;;21.50;100.00
13348;BME280;6743;49.934;9.138;2022-08-19T00:28:59;99959.34;;;21.54;100.00
13348;BME280;6743;49.934;9.138;2022-08-19T00:31:26;99943.38;;;21.53;100.00
13348;BME280;6743;49.934;9.138;2022-08-19T00:33:53;99937.75;;;21.54;100.00
13348;BME280;6743;49.934;9.138;2022-08-19T00:36:19;99930.13;;;21.51;100.00
13348;BME280;6743;49.934;9.138;2022-08-19T00:38:45;99935.78;;;21.50;100.00
13348;BME280;6743;49.934;9.138;2022-08-19T00:41:13;99946.06;;;21.53;100.00
13348;BME280;6743;49.934;9.138;2022-08-19T00:43:40;99951.00;;;21.56;100.00
13348;BME280;6743;49.934;9.138;2022-08-19T00:46:06;99941.25;;;21.55;100.00
13348;BME280;6743;49.934;9.138;2022-08-19T00:48:33;99942.31;;;21.54;100.00
13348;BME280;6743;49.934;9.138;2022-08-19T00:51:01;99946.31;;;21.51;100.00
13348;BME280;6743;49.934;9.138;2022-08-19T00:53:31;99940.44;;;21.54;100.00
13348;BME280;6743;49.934;9.138;2022-08-19T00:56:01;99932.34;;;21.54;100.00
13348;BME280;6743;49.934;9.138;2022-08-19T00:58:30;99923.44;;;21.54;100.00
13348;BME280;6743;49.934;9.138;2022-08-19T01:00:58;99919.91;;;21.53;100.00
13348;BME280;6743;49.934;9.138;2022-08-19T01:03:30;99921.72;;;21.48;100.00
13348;BME280;6743;49.934;9.138;2022-08-19T01:05:56;99922.19;;;21.45;100.00
13348;BME280;6743;49.934;9.138;2022-08-19T01:08:23;99911.91;;;21.42;100.00
13348;BME280;6743;49.934;9.138;2022-08-19T01:10:52;99926.59;;;21.51;100.00
13348;BME280;6743;49.934;9.138;2022-08-19T01:13:21;99936.34;;;21.52;100.00
13348;BME280;6743;49.934;9.138;2022-08-19T01:15:51;99918.09;;;21.42;100.00
13348;BME280;6743;49.934;9.138;2022-08-19T01:18:19;99939.84;;;21.52;100.00
13348;BME280;6743;49.934;9.138;2022-08-19T01:20:46;99931.44;;;21.49;100.00
13348;BME280;6743;49.934;9.138;2022-08-19T01:23:14;99933.78;;;21.45;100.00
13348;BME280;6743;49.934;9.138;2022-08-19T01:25:44;99930.28;;;21.45;100.00
13348;BME280;6743;49.934;9.138;2022-08-19T01:28:16;99926.75;;;21.44;100.00
13348;BME280;6743;49.934;9.138;2022-08-19T01:30:44;99895.03;;;21.35;100.00
13348;BME280;6743;49.934;9.138;2022-08-19T01:33:10;99912.94;;;21.41;100.00
13348;BME280;6743;49.934;9.138;2022-08-19T01:35:36;99914.25;;;21.38;100.00
13348;BME280;6743;49.934;9.138;2022-08-19T01:38:06;99921.19;;;21.34;100.00
13348;BME280;6743;49.934;9.138;2022-08-19T01:40:36;99926.59;;;21.34;100.00
13348;BME280;6743;49.934;9.138;2022-08-19T01:43:04;99932.00;;;21.34;100.00
13348;BME280;6743;49.934;9.138;2022-08-19T01:45:34;99928.47;;;21.34;100.00
13348;BME280;6743;49.934;9.138;2022-08-19T01:48:00;99926.41;;;21.24;100.00
13348;BME280;6743;49.934;9.138;2022-08-19T01:50:27;99915.53;;;21.19;100.00
13348;BME280;6743;49.934;9.138;2022-08-19T01:52:53;99916.59;;;21.18;100.00
13348;BME280;6743;49.934;9.138;2022-08-19T01:55:21;99944.00;;;21.27;100.00
13348;BME280;6743;49.934;9.138;2022-08-19T01:57:52;99945.41;;;21.29;100.00
13348;BME280;6743;49.934;9.138;2022-08-19T02:00:22;99950.22;;;21.27;100.00
13348;BME280;6743;49.934;9.138;2022-08-19T02:02:49;99947.97;;;21.24;100.00
13348;BME280;6743;49.934;9.138;2022-08-19T02:05:16;99942.59;;;21.24;100.00
13348;BME280;6743;49.934;9.138;2022-08-19T02:07:43;99948.09;;;21.29;100.00
13348;BME280;6743;49.934;9.138;2022-08-19T02:10:20;99949.63;;;21.25;100.00
13348;BME280;6743;49.934;9.138;2022-08-19T02:12:50;99962.06;;;21.26;100.00
13348;BME280;6743;49.934;9.138;2022-08-19T02:15:16;99968.50;;;21.25;100.00
13348;BME280;6743;49.934;9.138;2022-08-19T02:17:44;99970.87;;;21.21;100.00
13348;BME280;6743;49.934;9.138;2022-08-19T02:20:11;99968.44;;;21.20;100.00
13348;BME280;6743;49.934;9.138;2022-08-19T02:22:38;99971.00;;;21.15;100.00
13348;BME280;6743;49.934;9.138;2022-08-19T02:25:06;99963.63;;;21.10;100.00
13348;BME280;6743;49.934;9.138;2022-08-19T02:27:32;99970.06;;;21.09;100.00
13348;BME280;6743;49.934;9.138;2022-08-19T02:30:00;99962.47;;;21.06;100.00
13348;BME280;6743;49.934;9.138;2022-08-19T02:32:26;99957.53;;;21.03;100.00
13348;BME280;6743;49.934;9.138;2022-08-19T02:34:52;99961.28;;;21.02;100.00
13348;BME280;6743;49.934;9.138;2022-08-19T02:37:18;99963.44;;;21.00;100.00
13348;BME280;6743;49.934;9.138;2022-08-19T02:40:03;99956.41;;;20.99;100.00
13348;BME280;6743;49.934;9.138;2022-08-19T02:42:29;99955.56;;;20.99;100.00
13348;BME280;6743;49.934;9.138;2022-08-19T02:44:56;99960.16;;;20.98;100.00
13348;BME280;6743;49.934;9.138;2022-08-19T02:47:23;99953.94;;;20.98;100.00
13348;BME280;6743;49.934;9.138;2022-08-19T02:49:49;99959.31;;;20.98;100.00
13348;BME280;6743;49.934;9.138;2022-08-19T02:52:15;99954.91;;;20.92;100.00
13348;BME280;6743;49.934;9.138;2022-08-19T02:54:41;99955.00;;;20.97;100.00
13348;BME280;6743;49.934;9.138;2022-08-19T02:57:07;99953.94;;;20.98;100.00
13348;BME280;6743;49.934;9.138;2022-08-19T02:59:34;99953.94;;;20.98;100.00
13348;BME280;6743;49.934;9.138;2022-08-19T03:02:00;99954.53;;;21.00;100.00
13348;BME280;6743;49.934;9.138;2022-08-19T03:04:27;99952.88;;;20.99;100.00
13348;BME280;6743;49.934;9.138;2022-08-19T03:06:54;99952.16;;;21.03;100.00
13348;BME280;6743;49.934;9.138;2022-08-19T03:09:21;99958.94;;;21.06;100.00
13348;BME280;6743;49.934;9.138;2022-08-19T03:11:47;99967.03;;;21.06;100.00
13348;BME280;6743;49.934;9.138;2022-08-19T03:14:13;99968.44;;;21.08;100.00
13348;BME280;6743;49.934;9.138;2022-08-19T03:16:42;99970.78;;;21.05;100.00
13348;BME280;6743;49.934;9.138;2022-08-19T03:19:08;99956.41;;;20.99;100.00
13348;BME280;6743;49.934;9.138;2022-08-19T03:21:35;99968.81;;;21.00;100.00
13348;BME280;6743;49.934;9.138;2022-08-19T03:24:05;99957.13;;;20.95;100.00
13348;BME280;6743;49.934;9.138;2022-08-19T03:26:32;99956.78;;;20.91;100.00
13348;BME280;6743;49.934;9.138;2022-08-19T03:29:01;99954.06;;;20.91;100.00
13348;BME280;6743;49.934;9.138;2022-08-19T03:31:31;99962.37;;;20.90;100.00
13348;BME280;6743;49.934;9.138;2022-08-19T03:33:57;99965.44;;;20.93;100.00
13348;BME280;6743;49.934;9.138;2022-08-19T03:36:25;99965.78;;;20.97;100.00
13348;BME280;6743;49.934;9.138;2022-08-19T03:38:57;99965.22;;;20.95;100.00
13348;BME280;6743;49.934;9.138;2022-08-19T03:41:26;99963.91;;;20.97;100.00
13348;BME280;6743;49.934;9.138;2022-08-19T03:43:53;99963.91;;;20.97;100.00
13348;BME280;6743;49.934;9.138;2022-08-19T03:46:22;99969.06;;;20.99;100.00
13348;BME280;6743;49.934;9.138;2022-08-19T03:48:50;99954.75;;;20.98;100.00
13348;BME280;6743;49.934;9.138;2022-08-19T03:51:20;99961.88;;;21.04;100.00
13348;BME280;6743;49.934;9.138;2022-08-19T03:53:47;99952.50;;;21.07;100.00
13348;BME280;6743;49.934;9.138;2022-08-19T03:56:14;99956.84;;;21.08;100.00
13348;BME280;6743;49.934;9.138;2022-08-19T03:58:41;99962.47;;;21.06;100.00
13348;BME280;6743;49.934;9.138;2022-08-19T04:01:08;99956.03;;;20.96;100.00
13348;BME280;6743;49.934;9.138;2022-08-19T04:03:34;99967.28;;;21.04;100.00
13348;BME280;6743;49.934;9.138;2022-08-19T04:06:09;99969.97;;;21.04;100.00
13348;BME280;6743;49.934;9.138;2022-08-19T04:08:35;99964.09;;;21.07;100.00
13348;BME280;6743;49.934;9.138;2022-08-19T04:11:05;99967.88;;;21.06;100.00
13348;BME280;6743;49.934;9.138;2022-08-19T04:13:32;99966.00;;;21.07;100.00
13348;BME280;6743;49.934;9.138;2022-08-19T04:15:58;99971.37;;;21.07;100.00
13348;BME280;6743;49.934;9.138;2022-08-19T04:18:24;99978.66;;;21.06;100.00
13348;BME280;6743;49.934;9.138;2022-08-19T04:20:50;99981.59;;;21.05;100.00
13348;BME280;6743;49.934;9.138;2022-08-19T04:23:19;99983.94;;;21.01;100.00
13348;BME280;6743;49.934;9.138;2022-08-19T04:25:45;99977.97;;;20.99;100.00
13348;BME280;6743;49.934;9.138;2022-08-19T04:28:12;99979.63;;;21.00;100.00
13348;BME280;6743;49.934;9.138;2022-08-19T04:30:41;99968.47;;;20.97;100.00
13348;BME280;6743;49.934;9.138;2022-08-19T04:33:08;99970.94;;;20.98;100.00
13348;BME280;6743;49.934;9.138;2022-08-19T04:35:36;99971.91;;;20.92;100.00
13348;BME280;6743;49.934;9.138;2022-08-19T04:38:03;99967.22;;;20.88;100.00
13348;BME280;6743;49.934;9.138;2022-08-19T04:40:29;99954.69;;;20.81;100.00
13348;BME280;6743;49.934;9.138;2022-08-19T04:43:13;99968.28;;;20.87;100.00
13348;BME280;6743;49.934;9.138;2022-08-19T04:45:40;99965.72;;;20.80;100.00
13348;BME280;6743;49.934;9.138;2022-08-19T04:48:06;99981.53;;;20.88;100.00
13348;BME280;6743;49.934;9.138;2022-08-19T04:50:32;99977.53;;;20.91;100.00
13348;BME280;6743;49.934;9.138;2022-08-19T04:52:58;99982.69;;;20.92;100.00
13348;BME280;6743;49.934;9.138;2022-08-19T04:55:24;99981.41;;;20.95;100.00
13348;BME280;6743;49.934;9.138;2022-08-19T04:57:51;99987.56;;;20.95;100.00
13348;BME280;6743;49.934;9.138;2022-08-19T05:00:17;99989.22;;;20.96;100.00
13348;BME280;6743;49.934;9.138;2022-08-19T05:02:44;99986.28;;;20.98;100.00
13348;BME280;6743;49.934;9.138;2022-08-19T05:05:10;99989.59;;;21.00;100.00
13348;BME280;6743;49.934;9.138;2022-08-19T05:07:36;99984.88;;;20.95;100.00
13348;BME280;6743;49.934;9.138;2022-08-19T05:10:04;99988.53;;;21.01;100.00
13348;BME280;6743;49.934;9.138;2022-08-19T05:12:30;99996.62;;;21.01;100.00
13348;BME280;6743;49.934;9.138;2022-08-19T05:14:57;99997.44;;;21.01;100.00
13348;BME280;6743;49.934;9.138;2022-08-19T05:17:24;100002.56;;;21.03;100.00
13348;BME280;6743;49.934;9.138;2022-08-19T05:19:51;99999.63;;;21.04;100.00
13348;BME280;6743;49.934;9.138;2022-08-19T05:22:38;100003.16;;;21.05;100.00
13348;BME280;6743;49.934;9.138;2022-08-19T05:25:08;99997.53;;;21.06;100.00
13348;BME280;6743;49.934;9.138;2022-08-19T05:27:34;99993.78;;;21.07;100.00
13348;BME280;6743;49.934;9.138;2022-08-19T05:30:01;100004.34;;;21.09;100.00
13348;BME280;6743;49.934;9.138;2022-08-19T05:32:27;100001.62;;;21.09;100.00
13348;BME280;6743;49.934;9.138;2022-08-19T05:34:54;100018.62;;;21.09;100.00
13348;BME280;6743;49.934;9.138;2022-08-19T05:37:20;100010.78;;;21.08;100.00
13348;BME280;6743;49.934;9.138;2022-08-19T05:39:46;100004.34;;;21.09;100.00
13348;BME280;6743;49.934;9.138;2022-08-19T05:42:14;100011.16;;;21.00;100.00
13348;BME280;6743;49.934;9.138;2022-08-19T05:44:42;100015.50;;;21.01;100.00
13348;BME280;6743;49.934;9.138;2022-08-19T05:47:10;100017.59;;;20.99;100.00
13348;BME280;6743;49.934;9.138;2022-08-19T05:49:37;100016.56;;;21.00;100.00
13348;BME280;6743;49.934;9.138;2022-08-19T05:52:05;99999.47;;;20.82;100.00
13348;BME280;6743;49.934;9.138;2022-08-19T05:54:32;100018.09;;;20.84;100.00
13348;BME280;6743;49.934;9.138;2022-08-19T05:57:00;100025.47;;;20.89;100.00
13348;BME280;6743;49.934;9.138;2022-08-19T05:59:27;100023.25;;;20.86;100.00
13348;BME280;6743;49.934;9.138;2022-08-19T06:01:54;100033.31;;;20.90;100.00
13348;BME280;6743;49.934;9.138;2022-08-19T06:04:22;100040.59;;;20.90;100.00
13348;BME280;6743;49.934;9.138;2022-08-19T06:06:51;100044.34;;;20.89;100.00
13348;BME280;6743;49.934;9.138;2022-08-19T06:09:18;100050.22;;;20.86;100.00
13348;BME280;6743;49.934;9.138;2022-08-19T06:11:46;100049.03;;;20.81;100.00
13348;BME280;6743;49.934;9.138;2022-08-19T06:14:16;100060.41;;;20.83;100.00
13348;BME280;6743;49.934;9.138;2022-08-19T06:16:43;100054.19;;;20.83;100.00
13348;BME280;6743;49.934;9.138;2022-08-19T06:19:13;100060.41;;;20.83;100.00
13348;BME280;6743;49.934;9.138;2022-08-19T06:21:40;100058.44;;;20.79;100.00
13348;BME280;6743;49.934;9.138;2022-08-19T06:24:13;100049.44;;;20.73;100.00
13348;BME280;6743;49.934;9.138;2022-08-19T06:26:42;100058.34;;;20.74;100.00
13348;BME280;6743;49.934;9.138;2022-08-19T06:29:10;100067.34;;;20.79;100.00
13348;BME280;6743;49.934;9.138;2022-08-19T06:31:41;100066.03;;;20.82;100.00
13348;BME280;6743;49.934;9.138;2022-08-19T06:34:08;100063.59;;;20.80;100.00
13348;BME280;6743;49.934;9.138;2022-08-19T06:36:37;100071.06;;;20.90;100.00
13348;BME280;6743;49.934;9.138;2022-08-19T06:39:06;100064.03;;;20.89;100.00
13348;BME280;6743;49.934;9.138;2022-08-19T06:41:39;100074.97;;;20.94;100.00
13348;BME280;6743;49.934;9.138;2022-08-19T06:44:07;100073.66;;;20.97;100.00
13348;BME280;6743;49.934;9.138;2022-08-19T06:46:33;100070.97;;;20.85;100.00
13348;BME280;6743;49.934;9.138;2022-08-19T06:49:00;100080.81;;;20.91;100.00
13348;BME280;6743;49.934;9.138;2022-08-19T06:51:26;100079.03;;;20.97;100.00
13348;BME280;6743;49.934;9.138;2022-08-19T06:53:54;100086.66;;;21.00;100.00
13348;BME280;6743;49.934;9.138;2022-08-19T06:56:22;100094.03;;;21.04;100.00
13348;BME280;6743;49.934;9.138;2022-08-19T06:58:50;100093.81;;;21.06;100.00
13348;BME280;6743;49.934;9.138;2022-08-19T07:01:19;100091.72;;;21.08;100.00
13348;BME280;6743;49.934;9.138;2022-08-19T07:03:45;100105.53;;;21.11;100.00
13348;BME280;6743;49.934;9.138;2022-08-19T07:06:14;100101.53;;;21.14;100.00
13348;BME280;6743;49.934;9.138;2022-08-19T07:08:43;100100.94;;;21.12;100.00
13348;BME280;6743;49.934;9.138;2022-08-19T07:11:12;100104.00;;;21.15;100.00
13348;BME280;6743;49.934;9.138;2022-08-19T07:13:39;100111.75;;;21.23;100.00
13348;BME280;6743;49.934;9.138;2022-08-19T07:16:06;100103.66;;;21.23;100.00
13348;BME280;6743;49.934;9.138;2022-08-19T07:18:34;100103.19;;;21.27;100.00
13348;BME280;6743;49.934;9.138;2022-08-19T07:21:05;100109.31;;;21.22;100.00
13348;BME280;6743;49.934;9.138;2022-08-19T07:23:32;100111.75;;;21.23;100.00
13348;BME280;6743;49.934;9.138;2022-08-19T07:26:03;100103.66;;;21.23;100.00
13348;BME280;6743;49.934;9.138;2022-08-19T07:28:29;100104.00;;;21.27;100.00
13348;BME280;6743;49.934;9.138;2022-08-19T07:30:55;100111.03;;;21.28;100.00
13348;BME280;6743;49.934;9.138;2022-08-19T07:33:21;100108.91;;;21.30;100.00
13348;BME280;6743;49.934;9.138;2022-08-19T07:35:48;100107.03;;;21.31;100.00
13348;BME280;6743;49.934;9.138;2022-08-19T07:38:15;100112.19;;;21.32;100.00
13348;BME280;6743;49.934;9.138;2022-08-19T07:40:41;100107.28;;;21.29;100.00
13348;BME280;6743;49.934;9.138;2022-08-19T07:43:11;100106.22;;;21.30;100.00
13348;BME280;6743;49.934;9.138;2022-08-19T07:45:37;100109.72;;;21.31;100.00
13348;BME280;6743;49.934;9.138;2022-08-19T07:48:03;100116.06;;;21.36;100.00
13348;BME280;6743;49.934;9.138;2022-08-19T07:50:29;100114.44;;;21.35;100.00
13348;BME280;6743;49.934;9.138;2022-08-19T07:52:56;100117.69;;;21.37;100.00
13348;BME280;6743;49.934;9.138;2022-08-19T07:55:24;100125.22;;;21.35;100.00
13348;BME280;6743;49.934;9.138;2022-08-19T07:57:50;100131.31;;;21.42;100.00
13348;BME280;6743;49.934;9.138;2022-08-19T08:00:18;100130.94;;;21.50;100.00
13348;BME280;6743;49.934;9.138;2022-08-19T08:02:44;100131.03;;;21.55;100.00
13348;BME280;6743;49.934;9.138;2022-08-19T08:05:10;100126.88;;;21.65;100.00
13348;BME280;6743;49.934;9.138;2022-08-19T08:07:55;100131.34;;;21.71;100.00
13348;BME280;6743;49.934;9.138;2022-08-19T08:10:42;100127.81;;;21.70;100.00
13348;BME280;6743;49.934;9.138;2022-08-19T08:13:20;100126.62;;;21.78;100.00
13348;BME280;6743;49.934;9.138;2022-08-19T08:15:46;100123.50;;;21.86;100.00
13348;BME280;6743;49.934;9.138;2022-08-19T08:18:12;100123.34;;;21.92;100.00
13348;BME280;6743;49.934;9.138;2022-08-19T08:20:38;100128.53;;;21.94;100.00
13348;BME280;6743;49.934;9.138;2022-08-19T08:23:04;100125.37;;;21.97;100.00
13348;BME280;6743;49.934;9.138;2022-08-19T08:25:52;100121.94;;;22.02;100.00
13348;BME280;6743;49.934;9.138;2022-08-19T08:28:20;100116.97;;;22.10;100.00
13348;BME280;6743;49.934;9.138;2022-08-19T08:30:47;100110.84;;;22.15;100.00
13348;BME280;6743;49.934;9.138;2022-08-19T08:33:14;100099.03;;;22.21;100.00
13348;BME280;6743;49.934;9.138;2022-08-19T08:35:42;100112.22;;;22.34;100.00
13348;BME280;6743;49.934;9.138;2022-08-19T08:38:08;100119.56;;;22.33;100.00
13348;BME280;6743;49.934;9.138;2022-08-19T08:40:39;100120.69;;;22.37;100.00
13348;BME280;6743;49.934;9.138;2022-08-19T08:43:14;100124.78;;;22.40;100.00
13348;BME280;6743;49.934;9.138;2022-08-19T08:45:52;100115.28;;;22.37;100.00
13348;BME280;6743;49.934;9.138;2022-08-19T08:48:24;100120.69;;;22.37;100.00
13348;BME280;6743;49.934;9.138;2022-08-19T08:50:51;100126.69;;;22.39;100.00
13348;BME280;6743;49.934;9.138;2022-08-19T08:53:20;100117.47;;;22.40;100.00
13348;BME280;6743;49.934;9.138;2022-08-19T08:55:46;100127.72;;;22.55;100.00
13348;BME280;6743;49.934;9.138;2022-08-19T08:58:17;100124.84;;;22.62;100.00
13348;BME280;6743;49.934;9.138;2022-08-19T09:00:48;100129.03;;;22.69;100.00
13348;BME280;6743;49.934;9.138;2022-08-19T09:03:18;100118.34;;;22.74;100.00
13348;BME280;6743;49.934;9.138;2022-08-19T09:05:59;100131.19;;;22.84;100.00
13348;BME280;6743;49.934;9.138;2022-08-19T09:08:35;100128.81;;;22.88;100.00
13348;BME280;6743;49.934;9.138;2022-08-19T09:11:08;100127.22;;;22.92;100.00
13348;BME280;6743;49.934;9.138;2022-08-19T09:13:41;100128.69;;;22.99;100.00
13348;BME280;6743;49.934;9.138;2022-08-19T09:16:14;100127.69;;;23.05;100.00
13348;BME280;6743;49.934;9.138;2022-08-19T09:18:43;100129.75;;;23.15;100.00
13348;BME280;6743;49.934;9.138;2022-08-19T09:21:11;100121.44;;;23.22;100.00
13348;BME280;6743;49.934;9.138;2022-08-19T09:23:38;100115.59;;;23.30;100.00
13348;BME280;6743;49.934;9.138;2022-08-19T09:26:07;100118.94;;;23.37;100.00
13348;BME280;6743;49.934;9.138;2022-08-19T09:28:35;100124.87;;;23.39;100.00
13348;BME280;6743;49.934;9.138;2022-08-19T09:31:02;100131.13;;;23.39;100.00
13348;BME280;6743;49.934;9.138;2022-08-19T09:33:28;100125.47;;;23.41;100.00
13348;BME280;6743;49.934;9.138;2022-08-19T09:36:04;100124.97;;;23.44;100.00
13348;BME280;6743;49.934;9.138;2022-08-19T09:38:31;100127.59;;;23.39;100.00
13348;BME280;6743;49.934;9.138;2022-08-19T09:41:02;100127.59;;;23.39;100.00
13348;BME280;6743;49.934;9.138;2022-08-19T09:43:30;100127.59;;;23.39;100.00
13348;BME280;6743;49.934;9.138;2022-08-19T09:45:57;100126.28;;;23.41;100.00
13348;BME280;6743;49.934;9.138;2022-08-19T09:50:48;100124.63;;;23.40;100.00
13348;BME280;6743;49.934;9.138;2022-08-19T09:53:16;100129.66;;;23.48;100.00
13348;BME280;6743;49.934;9.138;2022-08-19T09:55:42;100121.53;;;23.48;100.00
13348;BME280;6743;49.934;9.138;2022-08-19T09:58:08;100124.63;;;23.57;100.00
13348;BME280;6743;49.934;9.138;2022-08-19T10:00:37;100129.00;;;23.63;100.00
13348;BME280;6743;49.934;9.138;2022-08-19T10:03:04;100126.34;;;23.68;100.00
13348;BME280;6743;49.934;9.138;2022-08-19T10:05:30;100134.25;;;23.70;100.00
13348;BME280;6743;49.934;9.138;2022-08-19T10:08:15;100128.81;;;23.70;100.00
13348;BME280;6743;49.934;9.138;2022-08-19T10:10:42;100122.97;;;23.78;100.00
13348;BME280;6743;49.934;9.138;2022-08-19T10:13:09;100129.50;;;23.82;100.00
13348;BME280;6743;49.934;9.138;2022-08-19T10:15:35;100121.94;;;23.84;100.00
13348;BME280;6743;49.934;9.138;2022-08-19T10:18:05;100113.22;;;23.82;100.00
13348;BME280;6743;49.934;9.138;2022-08-19T10:20:31;100110.66;;;23.92;100.00
13348;BME280;6743;49.934;9.138;2022-08-19T10:22:58;100097.09;;;23.92;100.00
13348;BME280;6743;49.934;9.138;2022-08-19T10:25:24;100103.41;;;24.03;100.00
13348;BME280;6743;49.934;9.138;2022-08-19T10:27:52;100099.59;;;23.99;100.00
13348;BME280;6743;49.934;9.138;2022-08-19T10:30:18;100101.81;;;24.07;100.00
13348;BME280;6743;49.934;9.138;2022-08-19T10:32:44;100092.94;;;24.11;100.00
13348;BME280;6743;49.934;9.138;2022-08-19T10:35:12;100099.22;;;24.17;100.00
13348;BME280;6743;49.934;9.138;2022-08-19T10:37:38;100080.87;;;24.24;100.00
13348;BME280;6743;49.934;9.138;2022-08-19T10:40:06;100087.19;;;24.34;100.00
13348;BME280;6743;49.934;9.138;2022-08-19T10:42:33;100085.06;;;24.42;100.00
13348;BME280;6743;49.934;9.138;2022-08-19T10:45:04;100069.38;;;24.49;100.00
13348;BME280;6743;49.934;9.138;2022-08-19T10:47:31;100069.72;;;24.57;100.00
13348;BME280;6743;49.934;9.138;2022-08-19T10:49:57;100071.13;;;24.65;100.00
13348;BME280;6743;49.934;9.138;2022-08-19T10:52:43;100065.47;;;24.71;100.00
13348;BME280;6743;49.934;9.138;2022-08-19T10:55:11;100056.28;;;24.78;100.00
13348;BME280;6743;49.934;9.138;2022-08-19T10:57:55;100047.97;;;24.89;100.00
13348;BME280;6743;49.934;9.138;2022-08-19T11:00:23;100040.41;;;24.96;100.00
13348;BME280;6743;49.934;9.138;2022-08-19T11:02:50;100051.00;;;24.98;100.00
13348;BME280;6743;49.934;9.138;2022-08-19T11:05:17;100048.28;;;24.98;100.00
13348;BME280;6743;49.934;9.138;2022-08-19T11:07:44;100048.34;;;25.03;100.00
13348;BME280;6743;49.934;9.138;2022-08-19T11:10:13;100045.88;;;25.01;100.00
13348;BME280;6743;49.934;9.138;2022-08-19T11:12:40;100053.78;;;25.08;100.00
13348;BME280;6743;49.934;9.138;2022-08-19T11:15:07;100050.56;;;25.16;100.00
13348;BME280;6743;49.934;9.138;2022-08-19T11:17:36;100056.81;;;25.22;100.00
13348;BME280;6743;49.934;9.138;2022-08-19T11:20:06;100051.69;;;25.30;100.00
13348;BME280;6743;49.934;9.138;2022-08-19T11:22:33;100035.91;;;25.27;100.00
13348;BME280;6743;49.934;9.138;2022-08-19T11:25:00;100034.59;;;25.35;100.00
13348;BME280;6743;49.934;9.138;2022-08-19T11:27:27;100049.56;;;25.42;100.00
13348;BME280;6743;49.934;9.138;2022-08-19T11:29:54;100040.59;;;25.52;100.00
13348;BME280;6743;49.934;9.138;2022-08-19T11:32:20;100050.44;;;25.58;100.00
13348;BME280;6743;49.934;9.138;2022-08-19T11:34:46;100034.97;;;25.64;100.00
13348;BME280;6743;49.934;9.138;2022-08-19T11:37:12;100018.09;;;25.67;100.00
13348;BME280;6743;49.934;9.138;2022-08-19T11:39:38;100034.19;;;25.78;100.00
13348;BME280;6743;49.934;9.138;2022-08-19T11:42:06;100023.84;;;25.80;100.00
13348;BME280;6743;49.934;9.138;2022-08-19T11:44:53;100026.31;;;25.92;100.00
13348;BME280;6743;49.934;9.138;2022-08-19T11:47:19;100030.66;;;25.93;100.00
13348;BME280;6743;49.934;9.138;2022-08-19T11:49:45;100013.78;;;25.96;100.00
13348;BME280;6743;49.934;9.138;2022-08-19T11:52:11;100008.34;;;26.01;100.00
13348;BME280;6743;49.934;9.138;2022-08-19T11:54:37;100010.25;;;26.01;100.00
13348;BME280;6743;49.934;9.138;2022-08-19T11:57:03;100005.91;;;26.15;100.00
13348;BME280;6743;49.934;9.138;2022-08-19T11:59:30;100009.16;;;26.22;100.00
13348;BME280;6743;49.934;9.138;2022-08-19T12:01:57;100014.09;;;26.25;100.00
13348;BME280;6743;49.934;9.138;2022-08-19T12:04:23;100006.47;;;26.32;100.00
13348;BME280;6743;49.934;9.138;2022-08-19T12:06:49;100001.84;;;26.33;100.00
13348;BME280;6743;49.934;9.138;2022-08-19T12:09:18;100002.87;;;26.42;100.00
13348;BME280;6743;49.934;9.138;2022-08-19T12:11:44;99999.91;;;26.48;100.00
13348;BME280;6743;49.934;9.138;2022-08-19T12:14:12;100004.53;;;26.53;100.00
13348;BME280;6743;49.934;9.138;2022-08-19T12:16:40;100001.53;;;26.49;100.00
13348;BME280;6743;49.934;9.138;2022-08-19T12:19:06;100006.44;;;26.52;100.00
13348;BME280;6743;49.934;9.138;2022-08-19T12:21:34;99997.44;;;26.57;100.00
13348;BME280;6743;49.934;9.138;2022-08-19T12:24:02;100000.16;;;26.62;100.00
13348;BME280;6743;49.934;9.138;2022-08-19T12:26:29;99991.97;;;26.67;100.00
13348;BME280;6743;49.934;9.138;2022-08-19T12:28:57;99992.75;;;26.73;100.00
13348;BME280;6743;49.934;9.138;2022-08-19T12:31:24;99978.03;;;26.79;100.00
13348;BME280;6743;49.934;9.138;2022-08-19T12:33:51;99983.72;;;26.87;100.00
13348;BME280;6743;49.934;9.138;2022-08-19T12:36:18;99997.88;;;26.94;100.00
13348;BME280;6743;49.934;9.138;2022-08-19T12:38:44;99990.81;;;26.88;100.00
13348;BME280;6743;49.934;9.138;2022-08-19T12:41:13;99996.25;;;26.88;100.00
13348;BME280;6743;49.934;9.138;2022-08-19T12:43:42;99993.53;;;26.88;100.00
13348;BME280;6743;49.934;9.138;2022-08-19T12:46:09;99982.09;;;26.86;100.00
13348;BME280;6743;49.934;9.138;2022-08-19T12:48:35;99988.63;;;26.85;100.00
13348;BME280;6743;49.934;9.138;2022-08-19T12:51:07;99987.00;;;26.84;100.00
13348;BME280;6743;49.934;9.138;2022-08-19T12:53:33;99983.72;;;26.87;100.00
13348;BME280;6743;49.934;9.138;2022-08-19T12:55:59;99985.13;;;26.90;100.00
13348;BME280;6743;49.934;9.138;2022-08-19T12:58:25;99994.34;;;26.84;99.53
13348;BME280;6743;49.934;9.138;2022-08-19T13:00:52;99998.19;;;26.83;96.69
13348;BME280;6743;49.934;9.138;2022-08-19T13:03:18;99988.09;;;26.78;91.37